Time;durP1;ratioP1;P1;durP2;ratioP2;P2;SDS_P1;SDS_P2;PMS_P1;PMS_P2;Temp;Humidity;BMP_temperature;BMP_pressure;BME280_temperature;BME280_humidity;BME280_pressure;Samples;Min_cycle;Max_cycle;Signal;HPM_P1;HPM_P2
2021/10/18 00:01:27;;;;;;;27.83;9.67;;;6.80;1.00;;;;;;5048421;28;20461;-78
2021/10/18 00:04:00;;;;;;;23.77;11.17;;;6.80;1.00;;;;;;5055834;28;20493;-78
2021/10/18 00:06:30;;;;;;;22.63;9.57;;;6.70;1.00;;;;;;5040194;28;20167;-78
2021/10/18 00:08:55;;;;;;;23.23;9.90;;;6.70;1.00;;;;;;5046759;28;20807;-78
2021/10/18 00:11:24;;;;;;;19.60;9.60;;;6.60;1.00;;;;;;5046834;28;20435;-78
2021/10/18 00:13:50;;;;;;;27.00;10.10;;;6.60;1.00;;;;;;5047174;28;20262;-78
2021/10/18 00:16:16;;;;;;;22.77;10.03;;;6.60;1.00;;;;;;5046056;28;20465;-79
2021/10/18 00:18:42;;;;;;;22.27;10.80;;;6.60;1.00;;;;;;5047356;28;20592;-79
2021/10/18 00:21:13;;;;;;;22.93;10.13;;;6.50;1.00;;;;;;5047078;28;20440;-79
2021/10/18 00:23:42;;;;;;;23.70;10.87;;;6.50;1.00;;;;;;5039809;28;20184;-79
2021/10/18 00:26:07;;;;;;;22.63;9.27;;;6.50;1.00;;;;;;5039876;28;20434;-79
2021/10/18 00:28:35;;;;;;;22.03;10.33;;;6.50;1.00;;;;;;5048563;28;20437;-79
2021/10/18 00:31:01;;;;;;;25.37;9.47;;;6.40;1.00;;;;;;5043902;28;20655;-79
2021/10/18 00:33:27;;;;;;;35.57;15.50;;;6.40;1.00;;;;;;5044396;28;20418;-79
2021/10/18 00:35:53;;;;;;;22.20;9.13;;;;;;;;;;5059014;28;20179;-79
2021/10/18 00:38:19;;;;;;;28.17;10.57;;;;;;;;;;5059607;28;20211;-79
2021/10/18 00:40:48;;;;;;;23.97;10.73;;;6.40;1.00;;;;;;5044518;28;20794;-79
2021/10/18 00:43:14;;;;;;;28.37;9.77;;;6.40;1.00;;;;;;5048472;28;20427;-79
2021/10/18 00:45:39;;;;;;;27.17;10.63;;;6.30;1.00;;;;;;5051980;28;20520;-79
2021/10/18 00:48:05;;;;;;;18.83;9.47;;;6.30;1.00;;;;;;5046546;28;20215;-79
2021/10/18 00:50:36;;;;;;;30.53;11.43;;;6.20;1.00;;;;;;5039187;28;20195;-79
2021/10/18 00:53:06;;;;;;;29.67;14.17;;;6.20;1.00;;;;;;5044133;28;20180;-79
2021/10/18 00:55:32;;;;;;;24.80;10.50;;;;;;;;;;5052534;28;20434;-79
2021/10/18 00:57:58;;;;;;;26.00;10.50;;;6.20;1.00;;;;;;5036346;28;20443;-79
2021/10/18 01:00:24;;;;;;;30.47;15.30;;;6.20;1.00;;;;;;5040606;28;20419;-78
2021/10/18 01:02:50;;;;;;;32.37;15.60;;;6.20;1.00;;;;;;5048102;28;20421;-79
2021/10/18 01:05:16;;;;;;;34.63;16.13;;;6.30;1.00;;;;;;5042770;28;20176;-78
2021/10/18 01:07:42;;;;;;;30.30;14.50;;;6.30;1.00;;;;;;5056193;28;20837;-78
2021/10/18 01:10:24;;;;;;;26.73;11.83;;;6.30;1.00;;;;;;5049913;28;20226;-78
2021/10/18 01:12:49;;;;;;;31.97;15.70;;;6.30;1.00;;;;;;5048197;28;20480;-78
2021/10/18 01:15:18;;;;;;;34.87;15.30;;;6.40;1.00;;;;;;5056069;28;20414;-78
2021/10/18 01:17:43;;;;;;;31.70;14.93;;;6.40;1.00;;;;;;5056296;28;20291;-78
2021/10/18 01:20:13;;;;;;;38.73;11.43;;;6.50;1.00;;;;;;5038475;28;20942;-78
2021/10/18 01:22:39;;;;;;;24.03;10.70;;;6.60;1.00;;;;;;5042756;28;20191;-78
2021/10/18 01:25:06;;;;;;;26.53;9.90;;;6.70;1.00;;;;;;5035938;28;20414;-78
2021/10/18 01:27:32;;;;;;;40.30;11.70;;;;;;;;;;5034307;28;20422;-78
2021/10/18 01:29:57;;;;;;;31.60;12.07;;;6.80;1.00;;;;;;5041013;28;20425;-78
2021/10/18 01:32:24;;;;;;;25.00;11.83;;;6.80;1.00;;;;;;5056252;28;20866;-79
2021/10/18 01:34:54;;;;;;;32.23;10.30;;;6.80;1.00;;;;;;5055375;28;20258;-79
2021/10/18 01:37:30;;;;;;;26.83;11.40;;;6.80;1.00;;;;;;5055234;28;20919;-79
2021/10/18 01:39:55;;;;;;;28.47;11.50;;;6.90;1.00;;;;;;5046610;28;20438;-79
2021/10/18 01:42:24;;;;;;;34.90;13.60;;;7.00;1.00;;;;;;5035520;28;20747;-79
2021/10/18 01:45:00;;;;;;;25.13;11.63;;;7.00;1.00;;;;;;5043836;28;20176;-79
2021/10/18 01:47:36;;;;;;;32.67;12.93;;;7.00;1.00;;;;;;5055598;28;20878;-80
2021/10/18 01:50:17;;;;;;;37.00;13.33;;;7.10;1.00;;;;;;5041526;28;20411;-79
2021/10/18 01:52:54;;;;;;;45.30;14.90;;;7.10;1.00;;;;;;5040172;28;20417;-79
2021/10/18 01:55:21;;;;;;;29.57;12.30;;;7.10;1.00;;;;;;5054101;28;20420;-79
2021/10/18 01:57:50;;;;;;;26.27;11.20;;;7.10;1.00;;;;;;5054724;28;20811;-79
2021/10/18 02:00:19;;;;;;;33.30;11.20;;;7.20;1.00;;;;;;5040200;28;20421;-79
2021/10/18 02:02:48;;;;;;;34.27;11.43;;;7.20;1.00;;;;;;5043875;28;20510;-78
2021/10/18 02:05:24;;;;;;;28.03;11.87;;;7.20;1.00;;;;;;5052314;28;20410;-78
2021/10/18 02:07:49;;;;;;;24.80;11.10;;;7.30;1.00;;;;;;5035013;28;20415;-78
2021/10/18 02:10:15;;;;;;;36.47;11.70;;;7.30;1.00;;;;;;5047388;28;20417;-78
2021/10/18 02:12:42;;;;;;;23.67;11.00;;;;;;;;;;5045118;28;20256;-78
2021/10/18 02:15:09;;;;;;;25.17;12.23;;;7.40;1.00;;;;;;5054516;28;20668;-78
2021/10/18 02:17:35;;;;;;;35.37;12.50;;;7.50;1.00;;;;;;5054958;28;20458;-79
2021/10/18 02:20:01;;;;;;;31.50;11.73;;;7.50;1.00;;;;;;5037809;28;20777;-80
2021/10/18 02:22:30;;;;;;;26.03;11.00;;;7.60;1.00;;;;;;5047150;28;20184;-79
2021/10/18 02:24:57;;;;;;;27.53;12.00;;;7.70;1.00;;;;;;5054293;28;20432;-80
2021/10/18 02:27:23;;;;;;;26.77;12.00;;;7.80;1.00;;;;;;5044118;28;20419;-79
2021/10/18 02:29:48;;;;;;;29.83;13.17;;;7.80;1.00;;;;;;5038173;28;20496;-80
2021/10/18 02:32:14;;;;;;;26.47;11.23;;;7.90;1.00;;;;;;5035964;28;20427;-79
2021/10/18 02:34:54;;;;;;;33.90;12.47;;;8.00;1.00;;;;;;5049688;28;20210;-79
2021/10/18 02:37:24;;;;;;;33.97;12.27;;;8.00;1.00;;;;;;5046191;28;20175;-80
2021/10/18 02:39:49;;;;;;;30.50;12.57;;;8.10;1.00;;;;;;5052721;28;20410;-79
2021/10/18 02:42:15;;;;;;;33.37;13.00;;;8.20;1.00;;;;;;5049992;28;20784;-79
2021/10/18 02:44:41;;;;;;;36.10;14.37;;;8.30;1.00;;;;;;5041028;28;20176;-79
2021/10/18 02:47:08;;;;;;;30.63;12.50;;;;;;;;;;5047559;28;20174;-79
2021/10/18 02:49:36;;;;;;;46.60;12.67;;;;;;;;;;5046366;28;20909;-79
2021/10/18 02:52:03;;;;;;;33.77;11.73;;;8.40;1.00;;;;;;5038882;28;20453;-78
2021/10/18 02:54:29;;;;;;;36.30;13.93;;;8.40;1.00;;;;;;5050198;28;20433;-78
2021/10/18 02:56:55;;;;;;;36.37;14.03;;;8.50;1.00;;;;;;5053893;28;20399;-78
2021/10/18 02:59:21;;;;;;;33.10;13.10;;;8.60;1.00;;;;;;5045478;28;20200;-78
2021/10/18 03:02:00;;;;;;;44.57;14.20;;;8.60;1.00;;;;;;5046741;28;20424;-78
2021/10/18 03:04:26;;;;;;;47.03;15.37;;;8.60;1.00;;;;;;5045029;28;20431;-78
2021/10/18 03:06:54;;;;;;;39.10;13.30;;;8.70;1.00;;;;;;5037091;28;20429;-78
2021/10/18 03:09:30;;;;;;;28.07;13.07;;;8.60;1.00;;;;;;5053150;28;20187;-78
2021/10/18 03:12:00;;;;;;;30.97;14.17;;;8.70;1.00;;;;;;5039962;28;20418;-78
2021/10/18 03:14:30;;;;;;;32.67;14.27;;;8.70;1.00;;;;;;5038058;28;20415;-79
2021/10/18 03:16:56;;;;;;;27.60;13.10;;;8.70;1.00;;;;;;5053420;28;20437;-79
2021/10/18 03:19:21;;;;;;;35.67;14.80;;;8.70;1.00;;;;;;5047088;28;21056;-78
2021/10/18 03:21:47;;;;;;;27.40;12.20;;;;;;;;;;5041506;28;20203;-79
2021/10/18 03:24:18;;;;;;;29.87;12.33;;;8.70;1.00;;;;;;5051654;28;20171;-78
2021/10/18 03:26:43;;;;;;;33.37;12.47;;;8.80;1.00;;;;;;5048481;28;20910;-79
2021/10/18 03:29:18;;;;;;;34.63;11.80;;;8.70;1.00;;;;;;5044664;28;20422;-78
2021/10/18 03:31:48;;;;;;;36.40;12.33;;;;;;;;;;5048038;28;20250;-79
2021/10/18 03:34:30;;;;;;;28.30;11.10;;;8.70;1.00;;;;;;5032318;28;20422;-79
2021/10/18 03:37:00;;;;;;;30.77;13.20;;;8.70;1.00;;;;;;5050214;28;20444;-78
2021/10/18 03:39:30;;;;;;;24.93;11.90;;;8.70;1.00;;;;;;5042553;28;20469;-79
2021/10/18 03:42:00;;;;;;;29.77;11.63;;;8.70;1.00;;;;;;5033703;28;20920;-79
2021/10/18 03:44:26;;;;;;;34.40;12.60;;;8.70;1.00;;;;;;5038119;28;20422;-78
2021/10/18 03:46:51;;;;;;;37.43;12.27;;;8.80;1.00;;;;;;5052381;28;20476;-79
2021/10/18 03:49:18;;;;;;;31.97;12.47;;;;;;;;;;5053250;28;20183;-78
2021/10/18 03:51:54;;;;;;;28.30;12.10;;;8.80;1.00;;;;;;5052933;28;20183;-78
2021/10/18 03:54:24;;;;;;;31.87;13.33;;;8.80;1.00;;;;;;5039732;28;20414;-82
2021/10/18 03:57:00;;;;;;;35.10;12.13;;;8.80;1.00;;;;;;5034087;28;20472;-78
2021/10/18 03:59:26;;;;;;;35.47;13.43;;;8.90;1.00;;;;;;5045109;28;20532;-79
2021/10/18 04:01:54;;;;;;;31.60;13.00;;;8.90;1.00;;;;;;5045724;28;20426;-78
2021/10/18 04:04:20;;;;;;;32.47;11.53;;;8.90;1.00;;;;;;5041966;28;20689;-80
2021/10/18 04:06:48;;;;;;;30.50;12.77;;;8.90;1.00;;;;;;5049753;28;20418;-81
2021/10/18 04:09:38;;;;;;;31.53;13.40;;;8.90;1.00;;;;;;5041940;28;20184;-81
2021/10/18 04:12:12;;;;;;;29.90;12.73;;;9.00;1.00;;;;;;5033417;28;20517;-80
2021/10/18 04:14:38;;;;;;;35.30;11.90;;;9.00;1.00;;;;;;5052604;28;20421;-80
2021/10/18 04:17:04;;;;;;;28.80;11.53;;;9.00;1.00;;;;;;5043267;28;20528;-80
2021/10/18 04:19:30;;;;;;;30.43;13.10;;;9.10;1.00;;;;;;5047364;28;20418;-80
2021/10/18 04:21:56;;;;;;;29.63;11.07;;;9.10;1.00;;;;;;5053608;28;20594;-80
2021/10/18 04:24:21;;;;;;;31.60;11.67;;;9.10;1.00;;;;;;5047847;28;20430;-80
2021/10/18 04:26:48;;;;;;;25.90;10.60;;;;;;;;;;5046240;28;20175;-80
2021/10/18 04:29:14;;;;;;;27.77;11.73;;;9.10;1.00;;;;;;5053535;28;20445;-79
2021/10/18 04:31:39;;;;;;;29.00;11.33;;;9.10;1.00;;;;;;5049311;28;20427;-80
2021/10/18 04:34:06;;;;;;;34.13;11.10;;;;;;;;;;5043715;28;20469;-80
2021/10/18 04:36:31;;;;;;;29.47;12.03;;;9.10;1.00;;;;;;5043250;28;20427;-80
2021/10/18 04:38:58;;;;;;;31.43;10.90;;;;;;;;;;5043642;28;20466;-80
2021/10/18 04:41:30;;;;;;;33.43;11.70;;;9.20;1.00;;;;;;5045713;28;20453;-80
2021/10/18 04:43:56;;;;;;;27.50;11.30;;;;;;;;;;5053958;28;20418;-81
2021/10/18 04:46:22;;;;;;;29.00;11.10;;;9.20;1.00;;;;;;5036204;28;20782;-80
2021/10/18 04:49:11;;;;;;;30.20;11.30;;;9.20;1.00;;;;;;5039932;28;20790;-81
2021/10/18 04:51:37;;;;;;;29.17;11.20;;;9.20;1.00;;;;;;5047815;28;20460;-80
2021/10/18 04:54:03;;;;;;;27.43;11.17;;;;;;;;;;5047741;28;20427;-81
2021/10/18 04:56:30;;;;;;;29.97;12.90;;;9.30;1.00;;;;;;5051077;28;20543;-80
2021/10/18 04:58:56;;;;;;;27.10;11.97;;;9.30;1.00;;;;;;5047876;28;20457;-81
2021/10/18 05:01:22;;;;;;;22.87;11.17;;;9.30;1.00;;;;;;5046770;28;20407;-80
2021/10/18 05:03:47;;;;;;;26.13;12.00;;;9.30;1.00;;;;;;5045733;28;20480;-78
2021/10/18 05:06:24;;;;;;;25.47;11.80;;;9.30;1.00;;;;;;5053596;28;20754;-80
2021/10/18 05:08:50;;;;;;;32.23;11.73;;;9.40;1.00;;;;;;5042967;28;20629;-79
2021/10/18 05:11:18;;;;;;;22.07;11.33;;;9.30;1.00;;;;;;5040099;28;20857;-78
2021/10/18 05:13:43;;;;;;;24.70;11.10;;;9.40;1.00;;;;;;5035840;28;20411;-78
2021/10/18 05:16:12;;;;;;;29.87;13.40;;;9.40;1.00;;;;;;5031730;28;20433;-78
2021/10/18 05:18:37;;;;;;;23.53;11.37;;;9.50;1.00;;;;;;5051947;28;20654;-77
2021/10/18 05:21:06;;;;;;;32.10;12.10;;;9.50;1.00;;;;;;5054318;28;20455;-78
2021/10/18 05:23:48;;;;;;;24.27;10.87;;;9.50;1.00;;;;;;5055202;28;20179;-80
2021/10/18 05:26:14;;;;;;;25.37;11.13;;;9.50;1.00;;;;;;5043862;28;20978;-78
2021/10/18 05:28:42;;;;;;;24.73;11.93;;;9.40;1.00;;;;;;5046413;28;20414;-80
2021/10/18 05:31:08;;;;;;;27.30;10.30;;;9.50;1.00;;;;;;5059155;28;20182;-78
2021/10/18 05:33:42;;;;;;;21.20;10.50;;;9.40;1.00;;;;;;5045052;28;20418;-79
2021/10/18 05:36:12;;;;;;;22.40;10.57;;;;;;;;;;5051853;28;20631;-80
2021/10/18 05:38:38;;;;;;;27.93;11.43;;;9.50;1.00;;;;;;5053611;28;20466;-80
2021/10/18 05:41:12;;;;;;;25.10;11.30;;;9.50;1.00;;;;;;5040449;28;20788;-80
2021/10/18 05:43:42;;;;;;;29.07;10.50;;;9.50;1.00;;;;;;5042859;28;20178;-80
2021/10/18 05:46:12;;;;;;;32.10;12.43;;;9.60;1.00;;;;;;5036506;28;20423;-80
2021/10/18 05:48:38;;;;;;;29.07;12.40;;;;;;;;;;5046195;28;20430;-80
2021/10/18 05:51:06;;;;;;;32.60;12.13;;;9.60;1.00;;;;;;5053822;28;20747;-81
2021/10/18 05:53:36;;;;;;;21.67;9.20;;;9.60;1.00;;;;;;5054825;28;20409;-80
2021/10/18 05:56:04;;;;;;;26.47;10.97;;;9.60;1.00;;;;;;5048323;28;20427;-80
2021/10/18 05:58:30;;;;;;;38.27;12.17;;;;;;;;;;5043774;28;20464;-81
2021/10/18 06:01:00;;;;;;;23.83;10.67;;;9.60;1.00;;;;;;5054796;28;20788;-81
2021/10/18 06:03:37;;;;;;;28.20;11.60;;;9.60;1.00;;;;;;5040999;28;20415;-81
2021/10/18 06:06:06;;;;;;;33.23;12.90;;;9.60;1.00;;;;;;5043586;28;20422;-78
2021/10/18 06:08:33;;;;;;;33.37;12.23;;;;;;;;;;5039313;28;20817;-79
2021/10/18 06:11:00;;;;;;;36.03;12.97;;;9.70;1.00;;;;;;5051080;28;20421;-78
2021/10/18 06:13:31;;;;;;;30.00;12.13;;;9.70;1.00;;;;;;5054421;28;20426;-79
2021/10/18 06:15:56;;;;;;;30.40;12.20;;;9.80;1.00;;;;;;5044535;28;20790;-80
2021/10/18 06:18:25;;;;;;;27.20;12.40;;;9.80;1.00;;;;;;5035656;28;20528;-83
2021/10/18 06:21:00;;;;;;;43.50;11.63;;;9.80;1.00;;;;;;5060157;28;20838;-82
2021/10/18 06:23:30;;;;;;;19.73;10.27;;;9.80;1.00;;;;;;5050808;28;20505;-81
2021/10/18 06:26:06;;;;;;;28.53;11.80;;;9.90;1.00;;;;;;5033027;28;20848;-81
2021/10/18 06:28:38;;;;;;;31.10;11.87;;;9.90;1.00;;;;;;5046759;28;20920;-81
2021/10/18 06:31:04;;;;;;;30.53;12.70;;;;;;;;;;5049015;28;20589;-81
2021/10/18 06:33:30;;;;;;;34.00;11.70;;;;;;;;;;5059124;28;20480;-79
2021/10/18 06:35:56;;;;;;;35.37;12.80;;;9.90;1.00;;;;;;5055070;28;20449;-81
2021/10/18 06:38:22;;;;;;;29.03;12.00;;;;;;;;;;5052998;28;20627;-81
2021/10/18 06:40:49;;;;;;;31.33;12.20;;;10.10;1.00;;;;;;5050431;28;20230;-81
2021/10/18 06:43:15;;;;;;;29.80;11.67;;;10.10;1.00;;;;;;5039569;28;20928;-81
2021/10/18 06:45:41;;;;;;;26.10;12.13;;;;;;;;;;5053063;28;20457;-81
2021/10/18 06:48:14;;;;;;;30.53;12.17;;;10.20;1.00;;;;;;5046016;28;20423;-80
2021/10/18 06:50:41;;;;;;;32.00;11.47;;;10.20;1.00;;;;;;5042382;28;20429;-78
2021/10/18 06:53:11;;;;;;;24.93;12.47;;;10.20;1.00;;;;;;5039508;28;20432;-78
2021/10/18 06:55:37;;;;;;;30.97;13.80;;;;;;;;;;5051760;28;20422;-78
2021/10/18 06:58:03;;;;;;;47.50;13.23;;;10.30;1.00;;;;;;5052774;28;20494;-78
2021/10/18 07:00:29;;;;;;;25.20;11.63;;;;;;;;;;5039420;28;20458;-78
2021/10/18 07:02:55;;;;;;;43.67;12.70;;;10.40;1.00;;;;;;5052891;28;20655;-79
2021/10/18 07:05:21;;;;;;;27.90;12.90;;;;;;;;;;5050302;28;20422;-82
2021/10/18 07:07:47;;;;;;;32.57;12.57;;;;;;;;;;5042166;28;20177;-81
2021/10/18 07:10:13;;;;;;;32.63;13.73;;;;;;;;;;5036257;28;20422;-80
2021/10/18 07:12:39;;;;;;;27.43;12.00;;;10.60;1.00;;;;;;5051737;28;20455;-80
2021/10/18 07:15:05;;;;;;;35.47;13.30;;;10.60;1.00;;;;;;5051101;28;20422;-80
2021/10/18 07:17:36;;;;;;;39.60;13.83;;;10.70;1.00;;;;;;5040205;28;20212;-80
2021/10/18 07:20:04;;;;;;;28.13;12.50;;;10.70;1.00;;;;;;5050556;28;20768;-78
2021/10/18 07:22:35;;;;;;;28.00;12.50;;;10.80;1.00;;;;;;5052798;28;20540;-78
2021/10/18 07:25:02;;;;;;;25.27;12.00;;;10.80;1.00;;;;;;5052580;28;20417;-78
2021/10/18 07:27:27;;;;;;;32.27;13.37;;;10.90;1.00;;;;;;5051146;28;20419;-79
2021/10/18 07:29:56;;;;;;;29.70;12.77;;;10.90;1.00;;;;;;5036627;28;20433;-82
2021/10/18 07:32:22;;;;;;;26.13;11.90;;;;;;;;;;5052472;28;20658;-79
2021/10/18 07:34:48;;;;;;;31.27;14.57;;;11.00;1.00;;;;;;5052881;28;20917;-78
2021/10/18 07:37:14;;;;;;;30.57;13.73;;;;;;;;;;5050612;28;20430;-79
2021/10/18 07:39:40;;;;;;;28.33;12.90;;;;;;;;;;5047345;28;20180;-78
2021/10/18 07:42:07;;;;;;;22.33;12.13;;;11.20;1.00;;;;;;5037592;28;20513;-80
2021/10/18 07:44:33;;;;;;;27.47;12.30;;;11.20;1.00;;;;;;5050288;28;20414;-78
2021/10/18 07:46:59;;;;;;;29.60;12.93;;;;;;;;;;5041248;28;20406;-79
2021/10/18 07:49:30;;;;;;;32.50;13.80;;;11.30;1.00;;;;;;5040260;28;20433;-80
2021/10/18 07:51:56;;;;;;;25.07;12.90;;;11.40;1.00;;;;;;5044499;28;20389;-81
2021/10/18 07:54:27;;;;;;;27.00;13.90;;;11.40;1.00;;;;;;5049757;28;20433;-81
2021/10/18 07:56:53;;;;;;;33.50;13.90;;;11.50;1.00;;;;;;5056459;28;20410;-81
2021/10/18 07:59:19;;;;;;;26.10;12.80;;;11.50;1.00;;;;;;5050055;28;20454;-81
2021/10/18 08:01:44;;;;;;;30.43;13.27;;;;;;;;;;5036483;28;20185;-81
2021/10/18 08:04:11;;;;;;;24.40;13.73;;;;;;;;;;5036190;28;20218;-81
2021/10/18 08:06:36;;;;;;;28.00;14.03;;;11.60;1.00;;;;;;5036728;28;20502;-78
2021/10/18 08:09:05;;;;;;;29.23;13.73;;;11.60;1.00;;;;;;5036213;28;20513;-78
2021/10/18 08:11:31;;;;;;;28.70;14.47;;;11.70;1.00;;;;;;5048312;28;20207;-78
2021/10/18 08:13:56;;;;;;;33.57;14.23;;;11.70;1.00;;;;;;5055827;28;20445;-79
2021/10/18 08:16:22;;;;;;;30.07;14.00;;;11.80;1.00;;;;;;5051304;28;20233;-77
2021/10/18 08:18:48;;;;;;;28.50;13.40;;;11.80;1.00;;;;;;5054309;28;20495;-77
2021/10/18 08:21:14;;;;;;;30.60;13.87;;;;;;;;;;5053886;28;20175;-77
2021/10/18 08:23:40;;;;;;;28.43;14.37;;;12.00;1.00;;;;;;5050872;28;20411;-77
2021/10/18 08:26:06;;;;;;;32.60;14.17;;;12.10;1.00;;;;;;5036040;28;20723;-77
2021/10/18 08:28:31;;;;;;;28.20;12.93;;;12.10;1.00;;;;;;5037551;28;20176;-77
2021/10/18 08:30:58;;;;;;;41.03;15.33;;;12.20;1.00;;;;;;5052207;28;20478;-77
2021/10/18 08:33:24;;;;;;;26.40;13.20;;;12.20;1.00;;;;;;5050641;28;20539;-77
2021/10/18 08:35:50;;;;;;;33.43;15.60;;;12.30;1.00;;;;;;5047077;28;20482;-79
2021/10/18 08:38:21;;;;;;;25.47;13.20;;;12.40;1.00;;;;;;5038901;28;20844;-79
2021/10/18 08:45:47;;;;;;;34.30;15.07;;;12.40;1.00;;;;;;5048576;28;20464;-80
2021/10/18 08:48:18;;;;;;;34.83;16.90;;;12.90;1.00;;;;;;5048409;28;20434;-80
2021/10/18 08:50:45;;;;;;;27.30;14.57;;;;;;;;;;5051936;28;20414;-80
2021/10/18 08:53:11;;;;;;;35.37;16.03;;;12.50;1.00;;;;;;5055528;28;20421;-80
2021/10/18 08:55:38;;;;;;;34.63;16.20;;;12.50;1.00;;;;;;5055202;28;20989;-80
2021/10/18 08:58:04;;;;;;;32.10;14.83;;;12.50;1.00;;;;;;5055289;28;20469;-80
2021/10/18 09:00:51;;;;;;;40.17;16.03;;;12.50;1.00;;;;;;5046718;28;20464;-79
2021/10/18 09:03:20;;;;;;;30.40;15.20;;;12.40;1.00;;;;;;5044042;28;20484;-79
2021/10/18 09:05:47;;;;;;;35.67;14.30;;;12.30;1.00;;;;;;5054824;28;20422;-78
2021/10/18 09:08:37;;;;;;;29.67;14.60;;;12.40;1.00;;;;;;5045613;28;20924;-79
2021/10/18 09:11:08;;;;;;;27.60;14.20;;;12.40;1.00;;;;;;5013067;28;20436;-79
2021/10/18 09:13:36;;;;;;;33.57;14.37;;;12.50;1.00;;;;;;5012014;28;20436;-79
2021/10/18 09:16:02;;;;;;;28.33;13.37;;;12.70;1.00;;;;;;5011974;28;20502;-79
2021/10/18 09:18:28;;;;;;;32.87;14.47;;;12.70;1.00;;;;;;5013189;28;20528;-79
2021/10/18 09:20:54;;;;;;;26.70;13.50;;;12.70;1.00;;;;;;5013604;28;20913;-78
2021/10/18 09:23:29;;;;;;;24.30;12.80;;;12.70;1.00;;;;;;5013084;28;20193;-79
2021/10/18 09:26:07;;;;;;;29.97;13.73;;;12.70;1.00;;;;;;5012962;28;20430;-79
2021/10/18 09:28:34;;;;;;;33.23;13.77;;;12.80;1.00;;;;;;5010457;28;20431;-79
2021/10/18 09:31:00;;;;;;;29.20;14.07;;;12.90;1.00;;;;;;4996651;28;20862;-79
2021/10/18 09:36:03;;;;;;;22.07;12.53;;;12.90;1.00;;;;;;5013120;28;20827;-77
2021/10/18 09:38:29;;;;;;;26.80;12.53;;;12.80;1.00;;;;;;5010534;28;20991;-77
2021/10/18 09:41:01;;;;;;;26.87;12.67;;;12.80;1.00;;;;;;5012382;28;20447;-77
2021/10/18 09:43:33;;;;;;;27.77;14.27;;;12.80;1.00;;;;;;5012181;28;20555;-77
2021/10/18 09:46:16;;;;;;;28.73;14.00;;;12.80;1.00;;;;;;4988157;28;20420;-77
2021/10/18 10:53:43;;;;;;;22.97;11.03;;;13.90;1.00;;;;;;5053190;28;20422;-77
2021/10/18 10:56:22;;;;;;;24.57;12.07;;;14.00;1.00;;;;;;5050777;28;20414;-77
2021/10/18 10:58:51;;;;;;;23.60;11.40;;;14.10;1.00;;;;;;5052224;28;20933;-77
2021/10/18 11:01:46;;;;;;;23.50;12.00;;;14.10;1.00;;;;;;5053293;28;20381;-77
2021/10/18 11:04:32;;;;;;;27.27;12.50;;;14.10;1.00;;;;;;5047529;28;20413;-76
2021/10/18 11:07:11;;;;;;;19.30;10.90;;;14.10;1.00;;;;;;5052064;28;20937;-76
2021/10/18 11:09:44;;;;;;;25.80;11.03;;;13.90;1.00;;;;;;5049387;28;20401;-77
2021/10/18 11:12:18;;;;;;;20.20;11.30;;;13.90;1.00;;;;;;5050019;28;20396;-77
2021/10/18 11:15:10;;;;;;;23.00;11.90;;;13.80;1.00;;;;;;5055114;28;20426;-77
2021/10/18 11:17:50;;;;;;;29.13;12.80;;;13.60;1.00;;;;;;5032345;28;20430;-76
2021/10/18 11:20:21;;;;;;;21.63;11.53;;;13.60;1.00;;;;;;5050143;28;20418;-76
2021/10/18 11:22:52;;;;;;;22.07;11.90;;;13.50;1.00;;;;;;5050917;28;20425;-75
2021/10/18 11:25:19;;;;;;;22.83;12.37;;;13.60;1.00;;;;;;5043207;28;20389;-75
2021/10/18 11:27:51;;;;;;;27.40;12.10;;;13.50;1.00;;;;;;5052531;28;20410;-76
2021/10/18 11:30:19;;;;;;;21.77;11.40;;;13.60;1.00;;;;;;5039339;28;20431;-76
2021/10/18 11:32:55;;;;;;;29.47;13.40;;;13.60;1.00;;;;;;5046009;28;20430;-75
2021/10/18 11:35:21;;;;;;;21.40;11.80;;;13.60;1.00;;;;;;5039926;28;20385;-75
2021/10/18 11:37:48;;;;;;;26.67;12.17;;;;;;;;;;5042682;28;20520;-77
2021/10/18 11:40:14;;;;;;;32.57;12.37;;;13.50;1.00;;;;;;5037847;28;20576;-76
2021/10/18 11:42:48;;;;;;;27.37;13.20;;;13.50;1.00;;;;;;5035700;28;20947;-76
2021/10/18 11:45:19;;;;;;;27.90;12.77;;;13.50;1.00;;;;;;5046074;28;20414;-77
2021/10/18 11:47:44;;;;;;;22.50;12.03;;;13.60;1.00;;;;;;5051572;28;20437;-77
2021/10/18 11:50:21;;;;;;;33.27;12.73;;;13.60;1.00;;;;;;5034354;28;20923;-77
2021/10/18 11:52:56;;;;;;;21.90;11.10;;;13.70;1.00;;;;;;5032675;28;20178;-75
2021/10/18 11:55:23;;;;;;;31.20;12.70;;;13.50;1.00;;;;;;5043560;28;20384;-75
2021/10/18 11:57:51;;;;;;;23.47;12.40;;;13.60;1.00;;;;;;5050956;28;20456;-75
2021/10/18 12:00:21;;;;;;;24.90;12.47;;;13.70;1.00;;;;;;5052358;28;20924;-75
2021/10/18 12:02:47;;;;;;;20.00;10.87;;;13.70;1.00;;;;;;5052387;28;20421;-75
2021/10/18 12:05:14;;;;;;;28.77;12.63;;;13.60;1.00;;;;;;5052264;28;20456;-75
2021/10/18 12:07:47;;;;;;;21.43;11.53;;;13.50;1.00;;;;;;5052663;28;21000;-77
2021/10/18 12:10:23;;;;;;;24.03;11.77;;;13.50;1.00;;;;;;5052494;28;20406;-77
2021/10/18 12:13:08;;;;;;;23.47;12.20;;;13.70;1.00;;;;;;5052213;28;20440;-77
2021/10/18 12:15:48;;;;;;;22.87;11.23;;;13.70;1.00;;;;;;5041731;28;20462;-76
2021/10/18 12:18:20;;;;;;;36.53;12.80;;;13.80;1.00;;;;;;5047864;28;20447;-77
2021/10/18 12:20:49;;;;;;;25.00;12.60;;;14.00;1.00;;;;;;5044045;28;20421;-77
2021/10/18 12:23:24;;;;;;;27.80;12.10;;;14.10;1.00;;;;;;5052588;28;20492;-75
2021/10/18 12:25:53;;;;;;;24.60;11.77;;;14.10;1.00;;;;;;5052124;28;20493;-75
2021/10/18 12:28:39;;;;;;;27.87;12.33;;;14.10;1.00;;;;;;5052185;28;20418;-75
2021/10/18 12:31:05;;;;;;;18.90;11.73;;;14.10;1.00;;;;;;5052191;28;20425;-75
2021/10/18 12:33:37;;;;;;;23.70;12.13;;;14.00;1.00;;;;;;5052060;28;20872;-75
2021/10/18 12:36:04;;;;;;;22.77;12.43;;;;;;;;;;5051736;28;20410;-75
2021/10/18 12:38:32;;;;;;;22.00;11.60;;;14.00;1.00;;;;;;5052539;28;20440;-75
2021/10/18 12:41:17;;;;;;;21.73;11.00;;;14.10;1.00;;;;;;5053264;28;20832;-75
2021/10/18 12:43:43;;;;;;;26.87;12.67;;;14.10;1.00;;;;;;5055226;28;20471;-75
2021/10/18 12:46:28;;;;;;;25.20;12.50;;;14.20;1.00;;;;;;5057714;28;20413;-75
2021/10/18 12:49:05;;;;;;;31.17;11.50;;;14.30;1.00;;;;;;5051328;28;20496;-75
2021/10/18 12:51:51;;;;;;;23.00;12.40;;;14.40;1.00;;;;;;5055531;28;20909;-75
2021/10/18 12:54:19;;;;;;;20.67;10.80;;;14.50;1.00;;;;;;5055487;28;20437;-75
2021/10/18 12:57:00;;;;;;;21.67;10.87;;;14.60;1.00;;;;;;5055518;28;20398;-75
2021/10/18 12:59:26;;;;;;;26.20;11.20;;;14.60;1.00;;;;;;5055594;28;20445;-75
2021/10/18 13:02:15;;;;;;;27.03;11.30;;;14.60;1.00;;;;;;5055162;28;20418;-75
2021/10/18 13:04:41;;;;;;;24.53;10.80;;;14.70;1.00;;;;;;5055546;28;20528;-75
2021/10/18 13:07:06;;;;;;;20.77;11.00;;;14.60;1.00;;;;;;5055438;28;20393;-75
2021/10/18 13:09:32;;;;;;;24.37;10.63;;;14.70;1.00;;;;;;5055780;28;20183;-75
2021/10/18 13:11:57;;;;;;;23.53;11.97;;;14.80;1.00;;;;;;5055286;28;20254;-75
2021/10/18 13:14:23;;;;;;;19.73;10.97;;;;;;;;;;5054228;28;20630;-75
2021/10/18 13:16:49;;;;;;;29.00;13.30;;;14.90;1.00;;;;;;5033851;28;20266;-75
2021/10/18 13:19:15;;;;;;;20.97;11.63;;;;;;;;;;5048889;28;20515;-76
2021/10/18 13:21:41;;;;;;;27.53;11.67;;;15.10;1.00;;;;;;5054914;28;20229;-75
2021/10/18 13:24:07;;;;;;;21.67;11.93;;;;;;;;;;5055161;28;20437;-76
2021/10/18 13:26:32;;;;;;;21.30;11.83;;;15.00;1.00;;;;;;5054909;28;20183;-77
2021/10/18 13:28:58;;;;;;;23.43;12.00;;;15.00;1.00;;;;;;5054437;28;20414;-77
2021/10/18 13:31:24;;;;;;;21.03;10.87;;;;;;;;;;5046797;28;20611;-77
2021/10/18 13:33:50;;;;;;;28.07;11.20;;;14.90;1.00;;;;;;5047963;28;20646;-76
2021/10/18 13:36:15;;;;;;;21.13;11.23;;;15.00;1.00;;;;;;5051400;28;20509;-75
2021/10/18 13:38:42;;;;;;;21.77;11.63;;;15.00;1.00;;;;;;5046219;28;20563;-78
2021/10/18 13:41:08;;;;;;;21.13;10.57;;;15.10;1.00;;;;;;5034905;28;20204;-77
2021/10/18 13:44:01;;;;;;;21.97;11.33;;;15.10;1.00;;;;;;5033495;28;20393;-76
2021/10/18 13:46:27;;;;;;;27.33;11.23;;;15.10;1.00;;;;;;5036672;28;20222;-78
2021/10/18 13:48:53;;;;;;;24.90;11.60;;;15.10;1.00;;;;;;5041007;28;20422;-78
2021/10/18 13:51:24;;;;;;;30.33;10.57;;;15.10;1.00;;;;;;5050508;28;20408;-77
2021/10/18 13:53:54;;;;;;;22.70;11.07;;;;;;;;;;5054361;28;20251;-78
2021/10/18 13:56:30;;;;;;;22.00;11.53;;;15.00;1.00;;;;;;5052766;28;20907;-77
2021/10/18 13:59:06;;;;;;;21.10;11.10;;;15.00;1.00;;;;;;5038239;28;20423;-77
2021/10/18 14:02:06;;;;;;;20.47;10.20;;;15.00;1.00;;;;;;5039678;28;20389;-77
2021/10/18 14:04:32;;;;;;;16.57;9.53;;;15.00;1.00;;;;;;5039779;28;21924;-78
2021/10/18 14:07:07;;;;;;;20.33;10.20;;;;;;;;;;5037566;28;20449;-79
2021/10/18 14:09:44;;;;;;;20.50;10.80;;;15.00;1.00;;;;;;5048263;28;20175;-79
2021/10/18 14:12:12;;;;;;;24.00;10.20;;;15.00;1.00;;;;;;5033511;28;20782;-75
2021/10/18 14:14:48;;;;;;;21.57;10.60;;;15.00;1.00;;;;;;5034987;28;20913;-76
2021/10/18 14:17:18;;;;;;;21.70;10.73;;;15.00;1.00;;;;;;5051177;28;20403;-76
2021/10/18 14:19:48;;;;;;;18.60;9.93;;;14.90;1.00;;;;;;5054356;28;20533;-75